Time;durP1;ratioP1;P1;durP2;ratioP2;P2;SDS_P1;SDS_P2;PMS_P1;PMS_P2;Temp;Humidity;BMP_temperature;BMP_pressure;BME280_temperature;BME280_humidity;BME280_pressure;Samples;Min_cycle;Max_cycle;Signal;HPM_P1;HPM_P2
2023/08/29 00:01:12;;;;;;;7.22;3.83;;;12.40;99.90;;;;;;5092977;28;20527;-67
2023/08/29 00:03:39;;;;;;;6.13;4.00;;;12.40;99.90;;;;;;5079692;27;20097;-68
2023/08/29 00:06:06;;;;;;;7.22;3.60;;;12.40;99.90;;;;;;5082126;27;20120;-68
2023/08/29 00:08:33;;;;;;;6.32;3.63;;;12.30;99.90;;;;;;5082553;27;20048;-68
2023/08/29 00:11:01;;;;;;;9.43;3.55;;;12.30;99.90;;;;;;5117113;28;20051;-68
2023/08/29 00:13:28;;;;;;;6.43;4.07;;;12.30;99.90;;;;;;5111590;27;20127;-68
2023/08/29 00:15:55;;;;;;;5.35;3.80;;;12.30;99.90;;;;;;5112405;27;20398;-68
2023/08/29 00:18:23;;;;;;;6.00;4.28;;;12.20;99.90;;;;;;5119945;27;20139;-67
2023/08/29 00:20:50;;;;;;;7.20;3.53;;;12.30;99.90;;;;;;5138147;27;20394;-67
2023/08/29 00:23:18;;;;;;;5.60;4.10;;;12.20;99.90;;;;;;5127860;27;20051;-67
2023/08/29 00:25:46;;;;;;;6.80;3.40;;;12.20;99.90;;;;;;5082911;27;20040;-68
2023/08/29 00:28:13;;;;;;;6.05;3.80;;;12.20;99.90;;;;;;5082864;27;20522;-68
2023/08/29 00:30:40;;;;;;;6.97;3.70;;;12.20;99.90;;;;;;5082521;27;20040;-67
2023/08/29 00:33:09;;;;;;;5.70;3.63;;;12.20;99.90;;;;;;5083160;27;20056;-67
2023/08/29 00:35:37;;;;;;;5.43;3.78;;;12.10;99.90;;;;;;5083327;27;20050;-67
2023/08/29 00:38:05;;;;;;;7.28;4.22;;;12.10;99.90;;;;;;5082133;27;20048;-67
2023/08/29 00:40:32;;;;;;;7.40;4.45;;;12.00;99.90;;;;;;5099970;27;20048;-67
2023/08/29 00:43:00;;;;;;;6.20;3.50;;;12.00;99.90;;;;;;5099947;28;20047;-67
2023/08/29 00:45:29;;;;;;;6.63;3.88;;;12.00;99.90;;;;;;5100653;28;20529;-67
2023/08/29 00:47:56;;;;;;;5.22;3.53;;;12.00;99.90;;;;;;5083137;27;20413;-67
2023/08/29 00:50:24;;;;;;;5.43;3.42;;;11.90;99.90;;;;;;5097919;28;20075;-67
2023/08/29 00:52:58;;;;;;;6.47;3.72;;;12.00;99.90;;;;;;5100650;27;20503;-68
2023/08/29 00:55:26;;;;;;;5.75;3.88;;;11.90;99.90;;;;;;5099802;27;20172;-68
2023/08/29 00:57:56;;;;;;;10.18;4.40;;;12.00;99.90;;;;;;5099618;27;20062;-68
2023/08/29 01:00:23;;;;;;;8.98;4.28;;;11.90;99.90;;;;;;5100555;28;20047;-67
2023/08/29 01:02:50;;;;;;;7.00;3.95;;;11.90;99.90;;;;;;5099668;27;20418;-68
2023/08/29 01:05:17;;;;;;;5.18;3.65;;;11.90;99.90;;;;;;5083416;27;20101;-67
2023/08/29 01:07:44;;;;;;;6.65;3.78;;;11.90;99.90;;;;;;5082041;27;20052;-67
2023/08/29 01:10:13;;;;;;;6.68;4.60;;;11.90;99.90;;;;;;5082523;27;20104;-67
2023/08/29 01:12:45;;;;;;;6.95;4.10;;;11.90;99.90;;;;;;5116487;28;20066;-67
2023/08/29 01:15:20;;;;;;;5.72;3.97;;;11.90;99.90;;;;;;5079180;28;20140;-69
2023/08/29 01:17:52;;;;;;;6.03;4.18;;;11.90;99.90;;;;;;5077536;27;20048;-68
2023/08/29 01:20:22;;;;;;;5.05;3.88;;;11.80;99.90;;;;;;5096424;27;20044;-68
2023/08/29 01:22:57;;;;;;;6.13;4.25;;;11.80;99.90;;;;;;5096000;28;20527;-68
2023/08/29 01:25:31;;;;;;;5.00;3.42;;;11.70;99.90;;;;;;5114893;28;20040;-67
2023/08/29 01:28:01;;;;;;;5.20;3.28;;;11.70;99.90;;;;;;5114050;28;20052;-68
2023/08/29 01:30:29;;;;;;;5.25;3.85;;;11.70;99.90;;;;;;5079370;28;20105;-69
2023/08/29 01:32:58;;;;;;;4.93;3.55;;;11.60;99.90;;;;;;5095509;27;20044;-67
2023/08/29 01:35:25;;;;;;;6.45;3.50;;;11.70;99.90;;;;;;5096026;27;20047;-68
2023/08/29 01:37:52;;;;;;;7.25;4.15;;;11.70;99.90;;;;;;5079023;28;20408;-69
2023/08/29 01:40:19;;;;;;;7.75;3.97;;;11.70;99.90;;;;;;5106329;27;20051;-68
2023/08/29 01:42:46;;;;;;;6.65;4.00;;;11.60;99.90;;;;;;5116166;27;20092;-68
2023/08/29 01:45:14;;;;;;;5.25;3.95;;;11.60;99.90;;;;;;5133862;27;20054;-68
2023/08/29 01:47:42;;;;;;;6.63;3.90;;;11.60;99.90;;;;;;5115958;27;20049;-68
2023/08/29 01:50:12;;;;;;;7.38;4.38;;;11.50;99.90;;;;;;5134323;27;20130;-69
2023/08/29 01:52:41;;;;;;;7.33;3.77;;;11.50;99.90;;;;;;5133607;27;20051;-68
2023/08/29 01:55:09;;;;;;;7.03;4.35;;;11.50;99.90;;;;;;5133859;27;20288;-68
2023/08/29 01:57:37;;;;;;;6.65;4.55;;;11.50;99.90;;;;;;5133951;27;20062;-67
2023/08/29 02:00:05;;;;;;;8.48;4.10;;;11.40;99.90;;;;;;5115019;27;20462;-68
2023/08/29 02:02:33;;;;;;;6.28;4.30;;;11.40;99.90;;;;;;5134013;27;20039;-68
2023/08/29 02:05:00;;;;;;;7.18;4.25;;;11.40;99.90;;;;;;5115461;27;20050;-68
2023/08/29 02:07:27;;;;;;;8.70;4.63;;;11.30;99.90;;;;;;5115003;27;20055;-68
2023/08/29 02:09:54;;;;;;;6.38;4.18;;;11.30;99.90;;;;;;5115750;27;20051;-67
2023/08/29 02:12:21;;;;;;;9.32;4.20;;;11.30;99.90;;;;;;5133979;27;20046;-67
2023/08/29 02:14:48;;;;;;;5.78;4.13;;;11.30;99.90;;;;;;5133250;27;20039;-67
2023/08/29 02:17:15;;;;;;;6.45;4.85;;;11.20;99.90;;;;;;5094303;28;20055;-67
2023/08/29 02:19:43;;;;;;;7.68;4.20;;;11.20;99.90;;;;;;5077904;27;20461;-67
2023/08/29 02:22:11;;;;;;;7.53;5.03;;;11.20;99.90;;;;;;5094406;27;20044;-67
2023/08/29 02:24:38;;;;;;;7.30;4.75;;;11.20;99.90;;;;;;5095663;28;20043;-68
2023/08/29 02:27:06;;;;;;;6.43;4.50;;;11.10;99.90;;;;;;5094454;28;20070;-68
2023/08/29 02:29:33;;;;;;;7.60;4.88;;;11.10;99.90;;;;;;5093658;28;20059;-67
2023/08/29 02:32:00;;;;;;;7.70;4.97;;;11.10;99.90;;;;;;5077792;28;20048;-67
2023/08/29 02:34:27;;;;;;;7.05;4.50;;;11.10;99.90;;;;;;5094133;27;20405;-68
2023/08/29 02:36:55;;;;;;;5.20;4.10;;;11.10;99.90;;;;;;5094817;27;20444;-68
2023/08/29 02:39:22;;;;;;;7.75;4.28;;;11.00;99.90;;;;;;5077983;27;20052;-68
2023/08/29 02:41:49;;;;;;;6.55;4.20;;;11.10;99.90;;;;;;5094211;27;20113;-67
2023/08/29 02:44:16;;;;;;;6.63;4.28;;;11.10;99.90;;;;;;5094527;27;20051;-67
2023/08/29 02:46:43;;;;;;;5.88;4.00;;;11.10;99.90;;;;;;5077949;28;20569;-66
2023/08/29 02:49:10;;;;;;;6.50;4.10;;;11.10;99.90;;;;;;5077826;28;20047;-67
2023/08/29 02:51:37;;;;;;;7.07;3.90;;;11.00;99.90;;;;;;5117723;27;20043;-67
2023/08/29 02:54:05;;;;;;;6.15;4.32;;;11.00;99.90;;;;;;5111766;28;20040;-67
2023/08/29 02:56:32;;;;;;;6.32;3.80;;;11.00;99.90;;;;;;5076086;27;20066;-66
2023/08/29 02:58:59;;;;;;;4.85;3.63;;;11.00;99.90;;;;;;5094366;27;20056;-66
2023/08/29 03:01:27;;;;;;;6.45;3.50;;;11.00;99.90;;;;;;5094216;27;20416;-66
2023/08/29 03:03:54;;;;;;;5.10;3.10;;;10.90;99.90;;;;;;5076807;27;20449;-66
2023/08/29 03:06:21;;;;;;;7.15;3.60;;;10.90;99.90;;;;;;5078632;28;20048;-66
2023/08/29 03:08:48;;;;;;;5.13;3.50;;;10.90;99.90;;;;;;5094284;28;20039;-67
2023/08/29 03:11:16;;;;;;;4.80;3.33;;;10.80;99.90;;;;;;5077570;28;20055;-67
2023/08/29 03:13:43;;;;;;;4.70;3.20;;;10.80;99.90;;;;;;5076767;28;20120;-67
2023/08/29 03:16:14;;;;;;;4.30;3.38;;;10.80;99.90;;;;;;5076985;28;20044;-67
2023/08/29 03:18:41;;;;;;;6.95;3.50;;;10.80;99.90;;;;;;5096260;28;20044;-66
2023/08/29 03:21:08;;;;;;;4.82;3.10;;;10.80;99.90;;;;;;5076896;27;20074;-67
2023/08/29 03:23:36;;;;;;;4.55;2.85;;;10.80;99.90;;;;;;5076947;28;20040;-67
2023/08/29 03:26:04;;;;;;;4.18;3.10;;;10.80;99.90;;;;;;5076391;28;20400;-67
2023/08/29 03:28:33;;;;;;;3.97;2.88;;;10.80;99.90;;;;;;5093934;28;20044;-68
2023/08/29 03:31:09;;;;;;;3.50;2.45;;;10.70;99.90;;;;;;5109574;27;20062;-67
2023/08/29 03:33:36;;;;;;;4.00;2.72;;;10.80;99.90;;;;;;5132864;27;20103;-67
2023/08/29 03:36:03;;;;;;;4.53;2.88;;;10.70;99.90;;;;;;5132155;27;20054;-66
2023/08/29 03:38:31;;;;;;;4.15;2.85;;;10.70;99.90;;;;;;5131223;27;20474;-67
2023/08/29 03:40:58;;;;;;;4.82;3.20;;;10.70;99.90;;;;;;5107334;27;20080;-66
2023/08/29 03:43:27;;;;;;;4.65;2.80;;;10.70;99.90;;;;;;5132103;27;20043;-67
2023/08/29 03:45:59;;;;;;;5.18;3.05;;;10.60;99.90;;;;;;5113390;27;20051;-67
2023/08/29 03:48:26;;;;;;;4.03;2.75;;;10.60;99.90;;;;;;5111261;27;20051;-67
2023/08/29 03:50:53;;;;;;;4.30;2.65;;;10.90;99.90;;;;;;5083059;28;20108;-67
2023/08/29 03:53:20;;;;;;;4.03;3.03;;;11.00;99.90;;;;;;5105298;28;20396;-67
2023/08/29 03:55:47;;;;;;;5.97;2.20;;;11.20;99.90;;;;;;5109126;28;20399;-68
2023/08/29 03:58:14;;;;;;;3.67;2.22;;;11.40;99.90;;;;;;5064703;28;20061;-67
2023/08/29 04:00:42;;;;;;;3.33;2.30;;;11.30;99.90;;;;;;5069986;28;20048;-67
2023/08/29 04:03:10;;;;;;;3.63;2.45;;;11.20;99.90;;;;;;5063271;28;20044;-67
2023/08/29 04:05:37;;;;;;;4.32;2.80;;;11.20;99.90;;;;;;5068060;28;20079;-67
2023/08/29 04:08:06;;;;;;;4.03;2.70;;;11.10;99.90;;;;;;5068587;28;20123;-68
2023/08/29 04:10:38;;;;;;;5.70;2.88;;;11.00;99.90;;;;;;5068964;28;20120;-68
2023/08/29 04:13:06;;;;;;;4.25;2.20;;;11.10;99.90;;;;;;5067623;28;20045;-68
2023/08/29 04:15:33;;;;;;;3.20;2.30;;;11.10;99.90;;;;;;5070556;28;20068;-68
2023/08/29 04:18:00;;;;;;;3.80;2.80;;;11.00;99.90;;;;;;5067637;28;20063;-68
2023/08/29 04:20:29;;;;;;;4.57;2.90;;;11.00;99.90;;;;;;5068239;28;20068;-68
2023/08/29 04:22:57;;;;;;;3.72;2.40;;;11.10;99.90;;;;;;5068056;28;20051;-68
2023/08/29 04:25:26;;;;;;;3.58;2.30;;;11.30;99.90;;;;;;5069453;28;20103;-67
2023/08/29 04:27:53;;;;;;;6.07;2.50;;;11.40;99.90;;;;;;5067154;28;20840;-68
2023/08/29 04:30:20;;;;;;;4.35;2.80;;;11.20;99.90;;;;;;5068750;28;20056;-68
2023/08/29 04:32:48;;;;;;;6.25;2.75;;;11.20;99.90;;;;;;5066968;28;20538;-67
2023/08/29 04:35:16;;;;;;;4.25;2.80;;;11.10;99.90;;;;;;5068687;28;20045;-67
2023/08/29 04:37:48;;;;;;;4.97;3.08;;;11.10;99.90;;;;;;5066908;28;20055;-67
2023/08/29 04:40:16;;;;;;;3.97;2.78;;;11.10;99.90;;;;;;5068192;28;20052;-66
2023/08/29 04:42:43;;;;;;;4.13;2.60;;;11.00;99.90;;;;;;5066913;28;20452;-67
2023/08/29 04:45:11;;;;;;;4.13;2.92;;;11.00;99.90;;;;;;5066909;28;20060;-67
2023/08/29 04:47:39;;;;;;;5.00;3.40;;;10.80;99.90;;;;;;5069164;28;20052;-66
2023/08/29 04:50:07;;;;;;;5.00;3.55;;;10.80;99.90;;;;;;5069457;28;20075;-67
2023/08/29 04:52:35;;;;;;;5.47;3.28;;;10.80;99.90;;;;;;5071068;28;20044;-67
2023/08/29 04:55:04;;;;;;;4.38;3.20;;;10.70;99.90;;;;;;5070361;28;20048;-67
2023/08/29 04:57:32;;;;;;;6.17;3.47;;;10.70;99.90;;;;;;5094261;28;20070;-67
2023/08/29 05:00:00;;;;;;;4.38;3.00;;;10.60;99.90;;;;;;5090773;28;20669;-67
2023/08/29 05:02:28;;;;;;;4.43;3.00;;;10.60;99.90;;;;;;5095617;28;20079;-67
2023/08/29 05:04:55;;;;;;;5.63;3.05;;;10.70;99.90;;;;;;5106305;27;20055;-67
2023/08/29 05:07:22;;;;;;;4.18;2.88;;;10.60;99.90;;;;;;5095235;28;20052;-67
2023/08/29 05:09:49;;;;;;;4.38;2.80;;;10.60;99.90;;;;;;5110158;27;20050;-68
2023/08/29 05:12:17;;;;;;;4.50;3.03;;;10.60;99.90;;;;;;5105855;27;20055;-68
2023/08/29 05:14:44;;;;;;;4.88;2.78;;;10.70;99.90;;;;;;5103146;27;20491;-67
2023/08/29 05:17:11;;;;;;;4.38;2.85;;;10.60;99.90;;;;;;5109940;27;20048;-70
2023/08/29 05:19:38;;;;;;;3.83;2.83;;;10.60;99.90;;;;;;5111039;28;20052;-67
2023/08/29 05:22:05;;;;;;;4.40;3.10;;;10.60;99.90;;;;;;5103411;27;20052;-67
2023/08/29 05:24:33;;;;;;;4.22;2.92;;;10.70;99.90;;;;;;5110640;28;20040;-68
2023/08/29 05:27:00;;;;;;;5.78;2.95;;;10.70;99.90;;;;;;5088087;28;20052;-67
2023/08/29 05:29:30;;;;;;;3.88;2.80;;;10.70;99.90;;;;;;5094134;28;20389;-67
2023/08/29 05:31:57;;;;;;;4.97;3.30;;;10.70;99.90;;;;;;5090467;28;20457;-69
2023/08/29 05:34:24;;;;;;;6.35;3.67;;;10.80;99.90;;;;;;5108499;27;20048;-68
2023/08/29 05:36:51;;;;;;;5.78;4.13;;;10.80;99.90;;;;;;5105723;27;20059;-66
2023/08/29 05:39:19;;;;;;;5.20;4.00;;;10.80;99.90;;;;;;5111102;28;20461;-66
2023/08/29 05:41:46;;;;;;;5.03;3.70;;;10.90;99.90;;;;;;5092964;28;20051;-67
2023/08/29 05:44:13;;;;;;;5.47;4.10;;;10.90;99.90;;;;;;5110739;27;20205;-66
2023/08/29 05:46:42;;;;;;;5.15;3.72;;;11.00;99.90;;;;;;5106637;27;20563;-65
2023/08/29 05:49:09;;;;;;;4.88;3.75;;;11.00;99.90;;;;;;5094053;28;20055;-67
2023/08/29 05:51:36;;;;;;;6.30;4.30;;;11.10;99.90;;;;;;5110038;28;20044;-67
2023/08/29 05:54:03;;;;;;;10.55;4.38;;;11.20;99.90;;;;;;5105272;27;20044;-66
2023/08/29 05:56:30;;;;;;;8.02;4.45;;;11.30;99.90;;;;;;5093726;28;20043;-68
2023/08/29 05:58:57;;;;;;;6.13;4.50;;;11.40;99.90;;;;;;5093125;28;20053;-68
2023/08/29 06:01:24;;;;;;;5.40;4.32;;;11.50;99.90;;;;;;5093331;28;20055;-70
2023/08/29 06:03:53;;;;;;;7.30;4.63;;;11.60;99.90;;;;;;5118419;27;20044;-67
2023/08/29 06:06:21;;;;;;;7.90;4.88;;;11.70;99.90;;;;;;5110978;27;20439;-67
2023/08/29 06:08:48;;;;;;;9.75;5.30;;;11.90;99.90;;;;;;5092886;28;20062;-67
2023/08/29 06:11:15;;;;;;;6.38;4.57;;;12.00;99.90;;;;;;5093163;28;20047;-67
2023/08/29 06:13:41;;;;;;;6.82;4.30;;;12.20;99.90;;;;;;5104355;27;20051;-67
2023/08/29 06:16:08;;;;;;;9.90;4.82;;;12.30;99.90;;;;;;5107547;27;20392;-68
2023/08/29 06:18:35;;;;;;;6.43;4.78;;;12.50;99.90;;;;;;5089301;28;20043;-67
2023/08/29 06:21:04;;;;;;;8.05;4.35;;;12.70;99.90;;;;;;5092146;28;20571;-68
2023/08/29 06:23:31;;;;;;;6.55;3.92;;;13.20;99.90;;;;;;5092434;28;20048;-68
2023/08/29 06:25:59;;;;;;;8.57;4.03;;;13.90;99.90;;;;;;5112767;28;20051;-65
2023/08/29 06:28:27;;;;;;;9.45;3.33;;;14.80;99.90;;;;;;5107125;28;20516;-65
2023/08/29 06:30:54;;;;;;;14.98;3.42;;;15.60;99.90;;;;;;5106621;27;20159;-66
2023/08/29 06:33:21;;;;;;;9.02;3.72;;;16.40;99.90;;;;;;5093385;28;20108;-66
2023/08/29 06:35:48;;;;;;;14.40;3.60;;;17.30;99.90;;;;;;5094448;28;20406;-67
2023/08/29 06:38:17;;;;;;;12.85;3.63;;;18.00;99.90;;;;;;5109434;28;20043;-67
2023/08/29 06:40:44;;;;;;;9.55;3.30;;;18.50;99.90;;;;;;5111678;28;20100;-67
2023/08/29 06:43:11;;;;;;;11.13;3.35;;;19.20;99.90;;;;;;5090607;27;20058;-67
2023/08/29 06:45:37;;;;;;;7.18;2.70;;;19.60;99.90;;;;;;5129195;27;20486;-66
2023/08/29 06:48:05;;;;;;;6.20;2.63;;;20.20;99.90;;;;;;5077138;28;20059;-67
2023/08/29 06:50:33;;;;;;;3.63;2.33;;;20.50;99.90;;;;;;5117461;27;20052;-66
2023/08/29 06:53:00;;;;;;;13.85;3.17;;;20.80;99.90;;;;;;5081550;28;20052;-66
2023/08/29 06:55:28;;;;;;;7.80;2.78;;;21.00;99.90;;;;;;5104532;27;20054;-66
2023/08/29 06:57:55;;;;;;;7.32;2.15;;;21.30;99.90;;;;;;5102608;28;20056;-66
2023/08/29 07:00:23;;;;;;;6.25;1.60;;;21.60;99.90;;;;;;5108900;27;20054;-68
2023/08/29 07:02:50;;;;;;;3.65;1.85;;;21.90;99.90;;;;;;5092234;28;20052;-67
2023/08/29 07:05:17;;;;;;;5.05;1.70;;;22.30;99.90;;;;;;5076207;28;20090;-67
2023/08/29 07:07:44;;;;;;;3.58;1.40;;;22.90;99.90;;;;;;5093706;28;20059;-67
2023/08/29 07:10:12;;;;;;;2.42;1.70;;;23.20;99.90;;;;;;5110497;28;20058;-67
2023/08/29 07:12:40;;;;;;;2.45;1.55;;;23.50;99.90;;;;;;5112407;28;20055;-68
2023/08/29 07:15:08;;;;;;;3.35;1.60;;;23.60;99.90;;;;;;5093084;28;20085;-67
2023/08/29 07:17:35;;;;;;;3.25;1.63;;;23.60;99.90;;;;;;5111875;28;20055;-68
2023/08/29 07:20:08;;;;;;;3.65;1.40;;;23.40;99.90;;;;;;5094749;28;20128;-66
2023/08/29 07:22:35;;;;;;;2.83;1.40;;;23.40;99.90;;;;;;5094946;27;20043;-67
2023/08/29 07:25:02;;;;;;;3.45;1.25;;;23.20;99.90;;;;;;5093868;27;20051;-67
2023/08/29 07:27:30;;;;;;;2.58;1.33;;;23.20;99.90;;;;;;5100043;27;20047;-67
2023/08/29 07:29:59;;;;;;;2.65;1.35;;;23.30;99.90;;;;;;5109539;28;20047;-68
2023/08/29 07:32:26;;;;;;;4.38;1.05;;;23.20;99.90;;;;;;5112490;28;20048;-67
2023/08/29 07:34:53;;;;;;;3.75;1.48;;;22.90;99.90;;;;;;5112554;28;20373;-67
2023/08/29 07:37:20;;;;;;;2.42;1.52;;;22.60;99.90;;;;;;5093411;27;20404;-67
2023/08/29 07:39:47;;;;;;;3.60;1.38;;;22.30;99.90;;;;;;5094260;28;20043;-67
2023/08/29 07:42:14;;;;;;;4.70;1.60;;;22.20;99.90;;;;;;5095939;27;20044;-67
2023/08/29 07:44:41;;;;;;;3.15;1.40;;;22.40;99.90;;;;;;5092697;28;20048;-68
2023/08/29 07:47:09;;;;;;;3.95;1.80;;;22.50;99.90;;;;;;5083352;28;20484;-68
2023/08/29 07:49:36;;;;;;;5.38;1.45;;;22.80;99.90;;;;;;5097284;28;20098;-68
2023/08/29 07:52:04;;;;;;;6.32;1.50;;;22.80;99.90;;;;;;5131499;27;20091;-68
2023/08/29 07:54:31;;;;;;;3.20;1.13;;;22.80;99.90;;;;;;5113180;27;20058;-68
2023/08/29 07:56:58;;;;;;;3.92;1.70;;;22.30;99.90;;;;;;5113549;28;20059;-68
2023/08/29 07:59:25;;;;;;;2.70;1.40;;;22.00;99.90;;;;;;5112552;27;20078;-67
2023/08/29 08:01:53;;;;;;;3.78;1.50;;;21.80;99.90;;;;;;5121146;27;20062;-68
2023/08/29 08:04:22;;;;;;;3.05;1.20;;;22.00;99.90;;;;;;5103047;28;20082;-68
2023/08/29 08:06:49;;;;;;;3.15;1.48;;;22.40;99.90;;;;;;5095212;28;20044;-68
2023/08/29 08:09:16;;;;;;;2.38;1.40;;;22.70;99.90;;;;;;5075980;28;20105;-68
2023/08/29 08:11:43;;;;;;;2.35;1.25;;;22.90;99.90;;;;;;5094007;28;20067;-68
2023/08/29 08:14:11;;;;;;;2.33;1.52;;;23.20;99.90;;;;;;5094005;28;20112;-69
2023/08/29 08:16:38;;;;;;;2.83;1.48;;;23.70;99.90;;;;;;5093875;28;20039;-68
2023/08/29 08:19:05;;;;;;;4.53;1.55;;;24.10;99.90;;;;;;5093755;28;20047;-69
2023/08/29 08:21:33;;;;;;;2.53;1.33;;;24.60;99.90;;;;;;5093845;28;20139;-68
2023/08/29 08:24:00;;;;;;;3.92;1.20;;;25.20;99.90;;;;;;5077581;28;20052;-67
2023/08/29 08:26:27;;;;;;;3.40;1.20;;;25.50;99.90;;;;;;5078811;28;20044;-67
2023/08/29 08:28:55;;;;;;;2.80;0.98;;;25.70;99.90;;;;;;5080678;28;20377;-68
2023/08/29 08:31:22;;;;;;;2.45;1.20;;;26.10;99.70;;;;;;5089622;28;20055;-68
2023/08/29 08:33:49;;;;;;;2.35;0.93;;;26.60;98.80;;;;;;5115750;28;20051;-68
2023/08/29 08:36:16;;;;;;;2.40;1.10;;;26.90;98.10;;;;;;5099320;27;20042;-69
2023/08/29 08:38:44;;;;;;;1.73;0.80;;;27.10;97.80;;;;;;5104593;27;20051;-69
2023/08/29 08:41:11;;;;;;;2.67;0.90;;;26.70;96.50;;;;;;5113659;28;20050;-69
2023/08/29 08:43:39;;;;;;;1.27;0.70;;;25.90;97.20;;;;;;5097195;27;20418;-69
2023/08/29 08:46:07;;;;;;;1.52;0.80;;;25.40;97.70;;;;;;5113989;28;20043;-69
2023/08/29 08:48:34;;;;;;;1.70;0.82;;;24.60;98.30;;;;;;5097064;28;20052;-69
2023/08/29 08:51:04;;;;;;;2.70;0.80;;;24.40;98.90;;;;;;5116007;28;20051;-68
2023/08/29 08:53:31;;;;;;;3.80;0.70;;;24.50;99.20;;;;;;5115024;27;20051;-68
2023/08/29 08:56:02;;;;;;;3.53;0.93;;;24.20;99.30;;;;;;5096516;27;20040;-69
2023/08/29 08:58:29;;;;;;;1.60;0.77;;;24.00;99.40;;;;;;5079636;27;20101;-68
2023/08/29 09:00:56;;;;;;;4.00;0.80;;;23.90;99.30;;;;;;5078118;27;20113;-68
2023/08/29 09:03:23;;;;;;;5.38;1.10;;;23.80;99.90;;;;;;5113957;27;20051;-68
2023/08/29 09:05:50;;;;;;;1.80;0.80;;;23.50;99.80;;;;;;5112892;28;20471;-68
2023/08/29 09:08:20;;;;;;;8.95;1.30;;;23.90;99.90;;;;;;5114866;28;20570;-68
2023/08/29 09:10:47;;;;;;;;;;;23.60;99.90;;;;;;5100553;27;20051;-68
2023/08/29 09:13:18;;;;;;;10.25;1.48;;;23.70;99.60;;;;;;5096530;27;20368;-67
2023/08/29 09:15:47;;;;;;;3.25;1.48;;;23.80;99.90;;;;;;5095475;27;20641;-67
2023/08/29 09:18:14;;;;;;;2.85;1.80;;;23.90;99.90;;;;;;5079600;28;20075;-68
2023/08/29 09:20:44;;;;;;;3.25;1.52;;;24.10;99.90;;;;;;5099382;27;20121;-67
2023/08/29 09:23:21;;;;;;;3.10;1.63;;;24.40;99.70;;;;;;5078293;28;20108;-68
2023/08/29 09:25:54;;;;;;;3.92;1.92;;;24.00;99.60;;;;;;5095942;27;20048;-68
2023/08/29 09:28:22;;;;;;;23.15;2.50;;;24.10;99.90;;;;;;5078393;27;20047;-68
2023/08/29 09:30:49;;;;;;;3.53;2.05;;;24.00;99.90;;;;;;5095469;27;20084;-68
2023/08/29 09:33:20;;;;;;;3.13;2.10;;;24.00;99.90;;;;;;5079874;27;20040;-68
2023/08/29 09:35:47;;;;;;;11.40;2.10;;;24.10;99.90;;;;;;5094889;27;20067;-68
2023/08/29 09:38:14;;;;;;;3.10;1.48;;;23.80;99.90;;;;;;5093064;28;20047;-68
2023/08/29 09:40:48;;;;;;;4.07;1.45;;;23.60;99.90;;;;;;5127825;27;20043;-69
2023/08/29 09:43:16;;;;;;;3.42;1.38;;;23.70;99.90;;;;;;5122603;27;20047;-69
2023/08/29 09:45:50;;;;;;;2.25;1.40;;;23.70;99.90;;;;;;5094989;28;20040;-68
2023/08/29 09:48:18;;;;;;;2.70;1.70;;;23.70;99.90;;;;;;5110939;28;20465;-69
2023/08/29 09:50:45;;;;;;;3.20;1.30;;;23.90;99.90;;;;;;5111953;28;20051;-69
2023/08/29 09:53:16;;;;;;;4.03;2.13;;;23.90;99.90;;;;;;5086770;28;20040;-68
2023/08/29 09:55:46;;;;;;;6.00;1.80;;;23.80;99.90;;;;;;5109156;28;20044;-69
2023/08/29 09:58:15;;;;;;;3.03;1.58;;;23.50;99.90;;;;;;5092350;28;20133;-69
2023/08/29 10:00:42;;;;;;;3.13;1.30;;;23.40;99.90;;;;;;5109724;27;20044;-68
2023/08/29 10:03:12;;;;;;;3.22;1.50;;;23.60;99.90;;;;;;5093431;28;20047;-70
2023/08/29 10:05:41;;;;;;;1.75;1.17;;;23.40;99.90;;;;;;5103438;27;20995;-69
2023/08/29 10:08:16;;;;;;;3.97;1.45;;;23.60;99.90;;;;;;5108428;27;20040;-68
2023/08/29 10:10:44;;;;;;;6.05;1.67;;;23.70;99.80;;;;;;5093076;28;20130;-69
2023/08/29 10:13:11;;;;;;;2.58;1.20;;;23.60;99.80;;;;;;5094032;28;20051;-68
2023/08/29 10:15:41;;;;;;;2.28;1.10;;;23.70;99.80;;;;;;5091027;28;20051;-68
2023/08/29 10:18:11;;;;;;;3.40;1.70;;;23.80;99.70;;;;;;5108429;27;20400;-69
2023/08/29 10:20:43;;;;;;;4.88;1.25;;;23.90;99.90;;;;;;5108737;28;20253;-67
2023/08/29 10:23:11;;;;;;;6.68;1.40;;;24.40;99.50;;;;;;5093529;27;20044;-68
2023/08/29 10:25:39;;;;;;;5.97;1.77;;;24.40;99.40;;;;;;5107066;28;20044;-68
2023/08/29 10:28:08;;;;;;;2.92;1.40;;;24.30;99.50;;;;;;5113538;28;20441;-69
2023/08/29 10:30:36;;;;;;;2.53;1.40;;;24.20;99.50;;;;;;5112220;28;20047;-69
2023/08/29 10:33:04;;;;;;;3.10;1.42;;;24.00;99.80;;;;;;5094989;28;20043;-68
2023/08/29 10:35:35;;;;;;;3.08;1.40;;;23.80;99.90;;;;;;5095484;28;20078;-68
2023/08/29 10:38:02;;;;;;;4.53;1.50;;;23.90;99.50;;;;;;5111847;28;20066;-68
2023/08/29 10:40:36;;;;;;;4.20;1.80;;;24.30;99.30;;;;;;5106102;27;20403;-67
2023/08/29 10:43:03;;;;;;;2.70;1.90;;;24.90;98.90;;;;;;5087396;28;20528;-67
2023/08/29 10:45:50;;;;;;;3.72;1.50;;;24.60;98.00;;;;;;5077837;28;20052;-68
2023/08/29 10:48:18;;;;;;;3.40;1.75;;;24.90;96.70;;;;;;5091981;28;20054;-68
2023/08/29 10:51:10;;;;;;;2.75;1.77;;;25.30;96.70;;;;;;5095024;27;20082;-68
2023/08/29 10:53:38;;;;;;;3.03;1.95;;;25.60;95.60;;;;;;5132331;27;20122;-68
2023/08/29 10:56:07;;;;;;;3.55;2.42;;;25.90;96.70;;;;;;5133200;27;20444;-68
2023/08/29 10:58:37;;;;;;;4.20;2.50;;;26.00;96.50;;;;;;5133075;27;20126;-68
2023/08/29 11:01:04;;;;;;;2.88;1.90;;;26.00;96.10;;;;;;5103494;27;20044;-68
2023/08/29 11:03:45;;;;;;;3.17;2.05;;;25.90;95.70;;;;;;5094305;27;20051;-68
2023/08/29 11:06:14;;;;;;;2.58;1.80;;;25.80;94.80;;;;;;5094326;27;20044;-67
2023/08/29 11:08:41;;;;;;;2.85;2.15;;;26.10;94.90;;;;;;5076492;28;20093;-67
2023/08/29 11:11:19;;;;;;;3.45;1.90;;;26.20;95.00;;;;;;5092950;28;20048;-68
2023/08/29 11:14:00;;;;;;;3.42;1.75;;;26.70;93.90;;;;;;5094864;28;20126;-68
2023/08/29 11:16:28;;;;;;;3.78;1.52;;;26.60;94.50;;;;;;5094227;28;20060;-68
2023/08/29 11:19:05;;;;;;;3.38;1.77;;;26.50;94.90;;;;;;5112957;28;20511;-68
2023/08/29 11:21:34;;;;;;;2.95;1.65;;;26.70;93.70;;;;;;5094677;28;20047;-68
2023/08/29 11:24:02;;;;;;;5.03;1.85;;;26.40;94.30;;;;;;5059486;28;20048;-69
2023/08/29 11:26:31;;;;;;;2.17;1.27;;;26.40;94.50;;;;;;5075572;28;20044;-68
2023/08/29 11:28:58;;;;;;;2.40;1.58;;;26.40;94.50;;;;;;5076466;28;20048;-68
2023/08/29 11:31:25;;;;;;;3.00;1.20;;;26.30;94.10;;;;;;5075919;27;20408;-68
2023/08/29 11:33:53;;;;;;;2.35;1.30;;;26.30;93.50;;;;;;5101035;28;20045;-68
2023/08/29 11:36:20;;;;;;;2.58;1.38;;;26.20;93.30;;;;;;5092915;28;20381;-68
2023/08/29 11:38:48;;;;;;;2.80;1.73;;;25.80;93.00;;;;;;5093700;27;20040;-68
2023/08/29 11:41:16;;;;;;;3.63;1.50;;;25.90;92.90;;;;;;5093663;28;20044;-69
2023/08/29 11:43:43;;;;;;;2.40;1.50;;;25.50;93.40;;;;;;5093213;27;20048;-68
2023/08/29 11:46:10;;;;;;;4.65;1.30;;;25.60;93.20;;;;;;5093378;28;20069;-68
2023/08/29 11:48:37;;;;;;;2.67;1.30;;;25.50;93.20;;;;;;5093495;27;20116;-68
2023/08/29 11:51:06;;;;;;;7.13;1.52;;;25.50;93.20;;;;;;5117110;27;20047;-68
2023/08/29 11:53:34;;;;;;;2.47;1.40;;;25.20;93.70;;;;;;5132005;27;20054;-68
2023/08/29 11:56:04;;;;;;;2.33;1.48;;;24.70;94.10;;;;;;5131600;27;20043;-68
2023/08/29 11:58:32;;;;;;;2.50;1.67;;;24.60;94.40;;;;;;5112632;27;20495;-68
2023/08/29 12:01:01;;;;;;;3.47;1.45;;;24.40;94.70;;;;;;5078982;28;20373;-67
2023/08/29 12:03:28;;;;;;;2.60;1.58;;;24.40;94.80;;;;;;5093497;28;20044;-67
2023/08/29 12:05:58;;;;;;;2.20;1.30;;;24.10;95.00;;;;;;5092545;28;20047;-68
2023/08/29 12:08:39;;;;;;;2.80;1.40;;;24.10;95.20;;;;;;5075419;28;20044;-68
2023/08/29 12:11:08;;;;;;;5.88;1.90;;;24.20;95.50;;;;;;5092526;28;20048;-68
2023/08/29 12:13:36;;;;;;;2.90;1.50;;;24.10;95.40;;;;;;5075458;28;20055;-68
2023/08/29 12:16:04;;;;;;;4.05;1.60;;;24.20;95.20;;;;;;5093142;28;20135;-68
2023/08/29 12:18:32;;;;;;;3.47;1.40;;;24.40;94.90;;;;;;5091774;28;20399;-68
2023/08/29 12:21:16;;;;;;;2.38;1.27;;;24.20;95.30;;;;;;5093722;28;20044;-68
2023/08/29 12:23:43;;;;;;;2.97;1.52;;;24.70;94.90;;;;;;5076438;28;20048;-67
2023/08/29 12:26:12;;;;;;;2.80;1.65;;;24.70;94.70;;;;;;5090976;28;20096;-67
2023/08/29 12:28:40;;;;;;;2.20;1.30;;;24.70;94.60;;;;;;5093857;28;20055;-68
2023/08/29 12:31:08;;;;;;;3.55;2.03;;;24.50;94.90;;;;;;5094095;28;20055;-68
2023/08/29 12:33:35;;;;;;;3.83;2.13;;;24.40;95.10;;;;;;5100122;28;20043;-67
2023/08/29 12:36:03;;;;;;;4.65;2.30;;;24.20;95.30;;;;;;5114593;28;20047;-68
2023/08/29 12:38:31;;;;;;;3.72;2.33;;;24.20;95.70;;;;;;5092070;28;20048;-69
2023/08/29 12:40:58;;;;;;;3.63;1.90;;;24.40;95.50;;;;;;5111375;28;20044;-68
2023/08/29 12:43:26;;;;;;;2.97;2.10;;;24.70;95.30;;;;;;5094229;28;20368;-68
2023/08/29 12:45:53;;;;;;;3.75;2.30;;;24.70;95.20;;;;;;5092763;28;20415;-68
2023/08/29 12:48:20;;;;;;;3.25;2.15;;;24.50;95.50;;;;;;5075890;28;20040;-68
2023/08/29 12:50:48;;;;;;;2.75;2.10;;;24.20;96.10;;;;;;5093758;28;20139;-68
2023/08/29 12:53:16;;;;;;;4.20;2.40;;;24.10;96.40;;;;;;5075529;28;20052;-68